Time;durP1;ratioP1;P1;durP2;ratioP2;P2;SDS_P1;SDS_P2;PMS_P1;PMS_P2;Temp;Humidity;BMP_temperature;BMP_pressure;BME280_temperature;BME280_humidity;BME280_pressure;Samples;Min_cycle;Max_cycle;Signal;HPM_P1;HPM_P2
2022/10/07 00:00:37;;;;;;;1.85;0.55;;;;;;;;;;4165656;28;20115;-37
2022/10/07 00:02:39;;;;;;;1.70;0.60;;;;;;;;;;4164935;28;20053;-37
2022/10/07 00:04:44;;;;;;;3.20;0.68;;;;;;;;;;4164716;28;20060;-38
2022/10/07 00:06:46;;;;;;;3.10;0.57;;;;;;;;;;4165248;28;20053;-38
2022/10/07 00:08:51;;;;;;;2.55;0.73;;;;;;;;;;4164568;28;20493;-38
2022/10/07 00:10:53;;;;;;;1.55;0.55;;;;;;;;;;4165217;28;20053;-37
2022/10/07 00:12:54;;;;;;;1.98;0.43;;;;;;;;;;4165131;28;20053;-37
2022/10/07 00:14:55;;;;;;;1.23;0.40;;;;;;;;;;4165039;28;20061;-37
2022/10/07 00:16:57;;;;;;;4.22;0.70;;;;;;;;;;4165066;28;20527;-37
2022/10/07 00:19:00;;;;;;;2.88;0.60;;;;;;;;;;4164590;28;20061;-37
2022/10/07 00:21:07;;;;;;;1.75;0.63;;;;;;;;;;4163480;28;20083;-38
2022/10/07 00:23:09;;;;;;;1.85;0.50;;;;;;;;;;4163828;28;20111;-38
2022/10/07 00:25:11;;;;;;;2.50;0.77;;;;;;;;;;4164946;28;20053;-37
2022/10/07 00:27:12;;;;;;;1.33;0.57;;;;;;;;;;4163559;28;20128;-37
2022/10/07 00:29:13;;;;;;;1.52;0.68;;;;;;;;;;4164794;28;20103;-37
2022/10/07 00:31:26;;;;;;;1.58;0.57;;;;;;;;;;4164893;28;20057;-38
2022/10/07 00:33:31;;;;;;;2.03;0.50;;;;;;;;;;4164530;28;20515;-42
2022/10/07 00:35:34;;;;;;;1.60;0.50;;;;;;;;;;4163205;28;20058;-43
2022/10/07 00:37:41;;;;;;;2.97;0.70;;;;;;;;;;4164939;28;20057;-42
2022/10/07 00:39:42;;;;;;;1.98;0.60;;;;;;;;;;4164864;28;20057;-42
2022/10/07 00:41:49;;;;;;;2.65;0.80;;;;;;;;;;4164634;28;20397;-45
2022/10/07 00:43:53;;;;;;;2.33;0.47;;;;;;;;;;4152156;28;20429;-43
2022/10/07 00:45:56;;;;;;;2.25;0.60;;;;;;;;;;4163339;28;20049;-43
2022/10/07 00:47:57;;;;;;;0.80;0.40;;;;;;;;;;4163478;28;20112;-43
2022/10/07 00:50:10;;;;;;;2.95;0.70;;;;;;;;;;4163805;28;20080;-42
2022/10/07 00:52:12;;;;;;;1.42;0.50;;;;;;;;;;4163208;28;20049;-43
2022/10/07 00:54:14;;;;;;;2.55;0.60;;;;;;;;;;4171012;28;20049;-43
2022/10/07 00:56:16;;;;;;;2.33;0.70;;;;;;;;;;4158174;28;20111;-42
2022/10/07 00:58:18;;;;;;;1.02;0.40;;;;;;;;;;4164242;28;20053;-43
2022/10/07 01:00:22;;;;;;;1.10;0.35;;;;;;;;;;4163583;28;20053;-43
2022/10/07 01:02:25;;;;;;;2.35;0.80;;;;;;;;;;4164406;28;20119;-42
2022/10/07 01:04:26;;;;;;;2.25;0.80;;;;;;;;;;4162440;28;20056;-43
2022/10/07 01:06:27;;;;;;;2.65;1.10;;;;;;;;;;4163800;28;20103;-43
2022/10/07 01:08:28;;;;;;;1.23;0.50;;;;;;;;;;4164178;28;20049;-43
2022/10/07 01:10:39;;;;;;;1.33;0.65;;;;;;;;;;4162866;28;20054;-43
2022/10/07 01:12:48;;;;;;;2.20;0.60;;;;;;;;;;4146836;28;20061;-42
2022/10/07 01:15:07;;;;;;;3.03;0.70;;;;;;;;;;4161535;28;20049;-43
2022/10/07 01:17:11;;;;;;;2.30;0.65;;;;;;;;;;4162872;28;20452;-43
2022/10/07 01:19:39;;;;;;;2.33;0.80;;;;;;;;;;4163562;28;20123;-43
2022/10/07 01:22:06;;;;;;;2.08;0.60;;;;;;;;;;4155835;28;20485;-43
2022/10/07 01:24:23;;;;;;;2.53;0.60;;;;;;;;;;4163237;28;20050;-43
2022/10/07 01:27:12;;;;;;;2.55;0.60;;;;;;;;;;4162726;28;20069;-42
2022/10/07 01:29:21;;;;;;;2.50;0.93;;;;;;;;;;4132410;28;20054;-42
2022/10/07 01:31:32;;;;;;;2.03;0.70;;;;;;;;;;4155629;28;20563;-43
2022/10/07 01:33:34;;;;;;;1.70;0.70;;;;;;;;;;4162747;28;20096;-42
2022/10/07 01:35:35;;;;;;;2.30;0.77;;;;;;;;;;4173979;28;20107;-40
2022/10/07 01:37:39;;;;;;;1.33;0.55;;;;;;;;;;4159706;28;20057;-42
2022/10/07 01:39:45;;;;;;;3.38;0.80;;;;;;;;;;4160497;28;20057;-42
2022/10/07 01:41:47;;;;;;;1.95;0.63;;;;;;;;;;4160660;28;20061;-42
2022/10/07 01:43:51;;;;;;;2.22;0.65;;;;;;;;;;4161041;28;20073;-42
2022/10/07 01:45:54;;;;;;;1.45;0.40;;;;;;;;;;4144187;28;20394;-43
2022/10/07 01:47:55;;;;;;;2.92;0.50;;;;;;;;;;4159774;28;20553;-43
2022/10/07 01:49:58;;;;;;;1.75;0.50;;;;;;;;;;4143317;28;20127;-42
2022/10/07 01:52:10;;;;;;;2.90;0.70;;;;;;;;;;4160068;28;20057;-42
2022/10/07 01:54:47;;;;;;;1.58;0.50;;;;;;;;;;4160033;28;20555;-42
2022/10/07 01:57:01;;;;;;;2.95;0.60;;;;;;;;;;4154810;28;20119;-43
2022/10/07 01:59:15;;;;;;;2.50;0.65;;;;;;;;;;4160018;28;20172;-42
2022/10/07 02:01:21;;;;;;;1.75;0.50;;;;;;;;;;4161428;28;20076;-42
2022/10/07 02:03:30;;;;;;;3.03;0.65;;;;;;;;;;4160937;28;20460;-42
2022/10/07 02:05:53;;;;;;;1.60;0.60;;;;;;;;;;4158884;28;20061;-42
2022/10/07 02:08:29;;;;;;;1.98;0.57;;;;;;;;;;4159913;28;20064;-43
2022/10/07 02:10:38;;;;;;;3.60;0.75;;;;;;;;;;4157142;28;20053;-43
2022/10/07 02:12:44;;;;;;;2.25;0.80;;;;;;;;;;4143388;28;20058;-42
2022/10/07 02:14:50;;;;;;;1.80;0.38;;;;;;;;;;4143856;28;20049;-42
2022/10/07 02:16:56;;;;;;;1.23;0.43;;;;;;;;;;4139836;28;20057;-43
2022/10/07 02:19:02;;;;;;;2.10;0.80;;;;;;;;;;4159178;28;20065;-43
2022/10/07 02:21:04;;;;;;;1.90;0.50;;;;;;;;;;4143497;28;20116;-43
2022/10/07 02:23:07;;;;;;;1.33;0.47;;;;;;;;;;4143852;28;20477;-43
2022/10/07 02:25:09;;;;;;;3.65;0.90;;;;;;;;;;4142874;28;20157;-43
2022/10/07 02:27:12;;;;;;;0.75;0.50;;;;;;;;;;4142937;28;20058;-43
2022/10/07 02:29:18;;;;;;;1.73;0.60;;;;;;;;;;4143884;28;20070;-43
2022/10/07 02:31:23;;;;;;;1.75;0.47;;;;;;;;;;4143416;28;20536;-43
2022/10/07 02:33:26;;;;;;;2.25;0.65;;;;;;;;;;4143198;28;20576;-40
2022/10/07 02:35:33;;;;;;;1.98;0.60;;;;;;;;;;4129910;28;20216;-43
2022/10/07 02:37:36;;;;;;;1.25;0.30;;;;;;;;;;4150222;28;20112;-43
2022/10/07 02:39:40;;;;;;;1.55;0.50;;;;;;;;;;4143865;28;20053;-43
2022/10/07 02:41:44;;;;;;;2.10;0.75;;;;;;;;;;4159614;28;20171;-42
2022/10/07 02:44:16;;;;;;;1.40;0.50;;;;;;;;;;4147619;28;20076;-43
2022/10/07 02:46:21;;;;;;;2.28;0.65;;;;;;;;;;4152671;28;20090;-42
2022/10/07 02:48:38;;;;;;;3.78;0.90;;;;;;;;;;4161601;28;20107;-42
2022/10/07 02:50:42;;;;;;;2.10;0.60;;;;;;;;;;4161597;28;20053;-43
2022/10/07 02:52:44;;;;;;;1.20;0.45;;;;;;;;;;4161856;28;20057;-43
2022/10/07 02:54:56;;;;;;;2.30;0.50;;;;;;;;;;4145416;28;20061;-43
2022/10/07 02:56:59;;;;;;;1.55;0.60;;;;;;;;;;4149044;28;20080;-43
2022/10/07 02:59:00;;;;;;;1.17;0.50;;;;;;;;;;4168301;28;20413;-43
2022/10/07 03:01:03;;;;;;;2.03;0.70;;;;;;;;;;4155445;28;20053;-43
2022/10/07 03:03:05;;;;;;;2.63;0.63;;;;;;;;;;4161386;28;20065;-43
2022/10/07 03:05:25;;;;;;;1.43;0.67;;;;;;;;;;4149491;28;20473;-43
2022/10/07 03:07:28;;;;;;;2.78;0.60;;;;;;;;;;4161394;28;20695;-43
2022/10/07 03:09:30;;;;;;;1.10;0.50;;;;;;;;;;4160701;28;20377;-43
2022/10/07 03:11:32;;;;;;;2.25;0.95;;;;;;;;;;4162649;28;20057;-43
2022/10/07 03:13:34;;;;;;;1.70;0.60;;;;;;;;;;4161424;28;20064;-43
2022/10/07 03:15:37;;;;;;;1.08;0.50;;;;;;;;;;4161444;28;20049;-43
2022/10/07 03:17:41;;;;;;;1.52;0.50;;;;;;;;;;4161496;28;20068;-43
2022/10/07 03:19:42;;;;;;;0.98;0.40;;;;;;;;;;4160507;28;20521;-43
2022/10/07 03:21:44;;;;;;;1.75;0.52;;;;;;;;;;4151741;28;20122;-43
2022/10/07 03:23:51;;;;;;;3.28;0.50;;;;;;;;;;4144730;28;20084;-43
2022/10/07 03:25:54;;;;;;;1.58;0.43;;;;;;;;;;4148365;28;20109;-43
2022/10/07 03:27:57;;;;;;;1.17;0.40;;;;;;;;;;4165993;28;20416;-43
2022/10/07 03:29:58;;;;;;;2.70;0.70;;;;;;;;;;4164612;28;20053;-43
2022/10/07 03:32:00;;;;;;;2.13;0.60;;;;;;;;;;4164425;28;20057;-42
2022/10/07 03:34:02;;;;;;;1.55;0.45;;;;;;;;;;4163740;28;20054;-43
2022/10/07 03:36:04;;;;;;;2.28;0.70;;;;;;;;;;4164521;28;20055;-43
2022/10/07 03:38:07;;;;;;;2.03;0.63;;;;;;;;;;4164623;28;20107;-42
2022/10/07 03:40:09;;;;;;;1.23;0.28;;;;;;;;;;4164102;28;20057;-43
2022/10/07 03:42:11;;;;;;;1.85;0.50;;;;;;;;;;4163767;28;20076;-43
2022/10/07 03:44:13;;;;;;;0.75;0.40;;;;;;;;;;4165669;28;20045;-43
2022/10/07 03:46:16;;;;;;;1.63;0.68;;;;;;;;;;4165402;28;20115;-42
2022/10/07 03:48:18;;;;;;;2.72;0.50;;;;;;;;;;4165374;28;20172;-42
2022/10/07 03:50:19;;;;;;;1.88;0.50;;;;;;;;;;4163440;28;20054;-43
2022/10/07 03:52:21;;;;;;;1.83;0.40;;;;;;;;;;4152537;28;20062;-41
2022/10/07 03:54:22;;;;;;;1.90;0.60;;;;;;;;;;4156958;28;20432;-43
2022/10/07 03:56:23;;;;;;;1.42;0.50;;;;;;;;;;4165587;28;20053;-43
2022/10/07 03:58:25;;;;;;;1.20;0.57;;;;;;;;;;4164998;28;20058;-41
2022/10/07 04:00:26;;;;;;;1.85;0.45;;;;;;;;;;4165183;28;20300;-42
2022/10/07 04:02:31;;;;;;;1.55;0.60;;;;;;;;;;4163619;28;20483;-42
2022/10/07 04:04:32;;;;;;;0.77;0.40;;;;;;;;;;4164635;28;20103;-42
2022/10/07 04:06:34;;;;;;;1.25;0.43;;;;;;;;;;4147717;28;20509;-43
2022/10/07 04:08:40;;;;;;;2.10;0.70;;;;;;;;;;4143559;28;20575;-44
2022/10/07 04:10:42;;;;;;;0.85;0.30;;;;;;;;;;4162910;28;20054;-43
2022/10/07 04:12:44;;;;;;;1.15;0.40;;;;;;;;;;4164399;28;20520;-41
2022/10/07 04:14:46;;;;;;;1.55;0.40;;;;;;;;;;4163704;28;20050;-43
2022/10/07 04:16:47;;;;;;;1.63;0.63;;;;;;;;;;4165237;28;20062;-43
2022/10/07 04:18:54;;;;;;;2.55;0.45;;;;;;;;;;4146643;28;20131;-43
2022/10/07 04:20:58;;;;;;;1.77;0.57;;;;;;;;;;4136537;28;20108;-43
2022/10/07 04:23:00;;;;;;;1.48;0.40;;;;;;;;;;4155266;28;20444;-43
2022/10/07 04:27:24;;;;;;;1.80;0.55;;;;;;;;;;4150493;28;20123;-43
2022/10/07 04:29:25;;;;;;;1.30;0.40;;;;;;;;;;4164564;28;20111;-43
2022/10/07 04:31:27;;;;;;;2.50;0.60;;;;;;;;;;4163278;28;20045;-42
2022/10/07 04:33:40;;;;;;;1.53;0.40;;;;;;;;;;4162357;28;20057;-42
2022/10/07 04:35:42;;;;;;;2.58;0.45;;;;;;;;;;4163162;28;20049;-43
2022/10/07 04:37:48;;;;;;;3.58;0.60;;;;;;;;;;4147187;28;20061;-41
2022/10/07 04:39:50;;;;;;;3.22;0.60;;;;;;;;;;4164699;28;20107;-43
2022/10/07 04:41:53;;;;;;;1.35;0.65;;;;;;;;;;4161955;28;20057;-43
2022/10/07 04:43:58;;;;;;;2.53;0.70;;;;;;;;;;4151698;28;20476;-43
2022/10/07 04:46:12;;;;;;;0.82;0.43;;;;;;;;;;4147010;28;20050;-43
2022/10/07 04:48:19;;;;;;;1.45;0.50;;;;;;;;;;4163596;28;20061;-43
2022/10/07 04:50:20;;;;;;;1.17;0.45;;;;;;;;;;4149538;28;20111;-43
2022/10/07 04:52:24;;;;;;;1.00;0.47;;;;;;;;;;4154817;28;20053;-43
2022/10/07 04:54:26;;;;;;;1.20;0.40;;;;;;;;;;4163074;28;20080;-44
2022/10/07 04:56:30;;;;;;;2.72;0.40;;;;;;;;;;4147220;28;20480;-42
2022/10/07 04:58:32;;;;;;;1.40;0.55;;;;;;;;;;4133568;28;20123;-43
2022/10/07 05:00:34;;;;;;;2.22;0.50;;;;;;;;;;4161144;28;20119;-43
2022/10/07 05:02:36;;;;;;;1.00;0.40;;;;;;;;;;4160989;28;20061;-43
2022/10/07 05:04:37;;;;;;;1.70;0.47;;;;;;;;;;4161649;28;20080;-41
2022/10/07 05:06:39;;;;;;;1.70;0.68;;;;;;;;;;4160717;28;20096;-43
2022/10/07 05:08:42;;;;;;;1.35;0.45;;;;;;;;;;4160985;28;20111;-43
2022/10/07 05:10:45;;;;;;;2.00;0.60;;;;;;;;;;4145004;28;20053;-43
2022/10/07 05:12:48;;;;;;;2.47;0.70;;;;;;;;;;4160881;28;20053;-43
2022/10/07 05:14:49;;;;;;;1.38;0.50;;;;;;;;;;4160541;28;20519;-43
2022/10/07 05:16:51;;;;;;;1.42;0.45;;;;;;;;;;4161257;28;20515;-43
2022/10/07 05:18:56;;;;;;;1.83;0.63;;;;;;;;;;4160453;28;20053;-43
2022/10/07 05:20:57;;;;;;;2.47;0.70;;;;;;;;;;4157535;28;20054;-42
2022/10/07 05:23:00;;;;;;;1.48;0.68;;;;;;;;;;4160766;28;20089;-42
2022/10/07 05:25:01;;;;;;;1.95;0.70;;;;;;;;;;4160625;28;20045;-43
2022/10/07 05:27:02;;;;;;;1.92;0.73;;;;;;;;;;4144687;28;20066;-43
2022/10/07 05:29:05;;;;;;;1.05;0.52;;;;;;;;;;4160200;28;20053;-43
2022/10/07 05:31:13;;;;;;;1.90;0.63;;;;;;;;;;4160734;28;20107;-43
2022/10/07 05:33:16;;;;;;;2.47;0.77;;;;;;;;;;4154425;28;20468;-42
2022/10/07 05:35:19;;;;;;;1.98;0.68;;;;;;;;;;4143848;28;20420;-43
2022/10/07 05:37:20;;;;;;;2.00;0.50;;;;;;;;;;4148667;28;20103;-43
2022/10/07 05:39:22;;;;;;;1.30;0.52;;;;;;;;;;4160433;28;20587;-43
2022/10/07 05:41:31;;;;;;;2.30;0.70;;;;;;;;;;4160460;28;20115;-43
2022/10/07 05:43:39;;;;;;;1.58;0.70;;;;;;;;;;4161422;28;20064;-43
2022/10/07 05:45:43;;;;;;;1.27;0.47;;;;;;;;;;4160396;28;20092;-43
2022/10/07 05:47:46;;;;;;;1.60;0.52;;;;;;;;;;4161921;28;20115;-42
2022/10/07 05:49:47;;;;;;;1.42;0.57;;;;;;;;;;4159463;28;20057;-42
2022/10/07 05:51:50;;;;;;;1.70;0.70;;;;;;;;;;4159997;28;20057;-43
2022/10/07 05:53:55;;;;;;;1.63;0.65;;;;;;;;;;4159939;28;20077;-42
2022/10/07 05:55:57;;;;;;;2.15;0.50;;;;;;;;;;4160118;28;20107;-42
2022/10/07 05:58:01;;;;;;;1.27;0.68;;;;;;;;;;4144549;28;20057;-42
2022/10/07 06:00:03;;;;;;;1.77;0.90;;;;;;;;;;4157775;28;20107;-43
2022/10/07 06:02:17;;;;;;;1.48;0.45;;;;;;;;;;4161776;28;20445;-43
2022/10/07 06:04:20;;;;;;;1.80;0.57;;;;;;;;;;4146410;28;20053;-43
2022/10/07 06:06:24;;;;;;;1.92;0.90;;;;;;;;;;4159613;28;20558;-43
2022/10/07 06:08:27;;;;;;;1.45;0.45;;;;;;;;;;4159183;28;20463;-42
2022/10/07 06:13:08;;;;;;;1.45;0.80;;;;;;;;;;4157498;28;20416;-42
2022/10/07 06:15:11;;;;;;;4.45;0.80;;;;;;;;;;4154554;28;20789;-42
2022/10/07 06:17:15;;;;;;;1.90;0.50;;;;;;;;;;4151541;28;20083;-42
2022/10/07 06:19:22;;;;;;;1.13;0.43;;;;;;;;;;4152301;28;20057;-42
2022/10/07 06:21:26;;;;;;;1.48;0.68;;;;;;;;;;4155007;28;20080;-41
2022/10/07 06:23:29;;;;;;;1.33;0.65;;;;;;;;;;4159524;28;20079;-42
2022/10/07 06:25:30;;;;;;;1.33;0.60;;;;;;;;;;4158414;28;20072;-41
2022/10/07 06:27:33;;;;;;;1.65;0.60;;;;;;;;;;4154092;28;20410;-42
2022/10/07 06:29:34;;;;;;;0.90;0.60;;;;;;;;;;4155456;28;20069;-42
2022/10/07 06:31:36;;;;;;;1.02;0.40;;;;;;;;;;4149363;28;20082;-43
2022/10/07 06:33:39;;;;;;;1.75;0.70;;;;;;;;;;4152314;28;20058;-42
2022/10/07 06:35:41;;;;;;;2.65;0.85;;;;;;;;;;4152717;28;20590;-41
2022/10/07 06:37:42;;;;;;;1.15;0.50;;;;;;;;;;4155836;28;20430;-42
2022/10/07 06:39:45;;;;;;;1.08;0.30;;;;;;;;;;4149561;28;20144;-42
2022/10/07 06:41:47;;;;;;;0.90;0.40;;;;;;;;;;4150927;28;20061;-39
2022/10/07 06:44:18;;;;;;;0.75;0.30;;;;;;;;;;4149719;28;20053;-42
2022/10/07 06:46:19;;;;;;;1.80;0.65;;;;;;;;;;4153038;28;20139;-43
2022/10/07 06:48:24;;;;;;;1.85;0.45;;;;;;;;;;4151768;28;20061;-42
2022/10/07 06:50:26;;;;;;;1.40;0.82;;;;;;;;;;4154355;28;20061;-43
2022/10/07 06:52:27;;;;;;;2.95;0.47;;;;;;;;;;4137361;28;20058;-42
2022/10/07 06:54:29;;;;;;;2.67;0.55;;;;;;;;;;4151748;28;20079;-42
2022/10/07 06:56:31;;;;;;;1.58;0.60;;;;;;;;;;4151091;28;20080;-42
2022/10/07 06:58:32;;;;;;;1.60;0.57;;;;;;;;;;4153748;28;20050;-42
2022/10/07 07:00:35;;;;;;;2.47;0.70;;;;;;;;;;4141776;28;20061;-41
2022/10/07 07:02:37;;;;;;;1.27;0.50;;;;;;;;;;4156315;28;20393;-41
2022/10/07 07:04:39;;;;;;;0.73;0.40;;;;;;;;;;4154632;28;20103;-42
2022/10/07 07:06:41;;;;;;;2.00;0.40;;;;;;;;;;4155523;28;20061;-42
2022/10/07 07:08:44;;;;;;;0.95;0.50;;;;;;;;;;4151998;28;20075;-43
2022/10/07 07:10:47;;;;;;;2.33;0.50;;;;;;;;;;4155044;28;20053;-42
2022/10/07 07:12:52;;;;;;;1.65;0.55;;;;;;;;;;4155335;28;20080;-42
2022/10/07 07:14:53;;;;;;;1.05;0.57;;;;;;;;;;4153485;28;20075;-42
2022/10/07 07:16:55;;;;;;;1.15;0.65;;;;;;;;;;4155415;28;20057;-42
2022/10/07 07:19:01;;;;;;;2.75;0.70;;;;;;;;;;4153559;28;20123;-42
2022/10/07 07:21:06;;;;;;;1.77;0.52;;;;;;;;;;4157291;28;20057;-49
2022/10/07 07:23:10;;;;;;;1.83;0.70;;;;;;;;;;4137171;28;20213;-42
2022/10/07 07:25:12;;;;;;;2.20;0.55;;;;;;;;;;4153479;28;20489;-43
2022/10/07 07:27:13;;;;;;;2.22;0.60;;;;;;;;;;4148086;28;20183;-42
2022/10/07 07:29:15;;;;;;;1.55;0.43;;;;;;;;;;4155561;28;20056;-42
2022/10/07 07:31:33;;;;;;;1.35;0.40;;;;;;;;;;4144748;28;20127;-42
2022/10/07 07:33:38;;;;;;;1.60;0.60;;;;;;;;;;4152803;28;20049;-42
2022/10/07 07:35:42;;;;;;;2.08;0.43;;;;;;;;;;4155381;28;20088;-42
2022/10/07 07:37:44;;;;;;;1.80;0.68;;;;;;;;;;4155957;28;20056;-42
2022/10/07 07:39:46;;;;;;;1.83;0.65;;;;;;;;;;4156319;28;20459;-42
2022/10/07 07:41:51;;;;;;;1.45;0.57;;;;;;;;;;4160569;28;20053;-42
2022/10/07 07:43:56;;;;;;;3.03;0.60;;;;;;;;;;4156253;28;20049;-42
2022/10/07 07:45:58;;;;;;;1.15;0.40;;;;;;;;;;4156660;28;20463;-42
2022/10/07 07:47:59;;;;;;;1.60;0.70;;;;;;;;;;4155421;28;20053;-42
2022/10/07 07:50:03;;;;;;;2.75;0.60;;;;;;;;;;4152861;28;20057;-40
2022/10/07 07:52:07;;;;;;;0.88;0.40;;;;;;;;;;4147961;28;20417;-41
2022/10/07 07:54:14;;;;;;;1.33;0.60;;;;;;;;;;4153033;28;20481;-41
2022/10/07 07:56:19;;;;;;;0.93;0.73;;;;;;;;;;4152006;28;20107;-42
2022/10/07 07:58:21;;;;;;;0.95;0.52;;;;;;;;;;4153445;28;20084;-42
2022/10/07 08:00:23;;;;;;;2.45;0.60;;;;;;;;;;4156819;28;20080;-42
2022/10/07 08:02:36;;;;;;;1.17;0.50;;;;;;;;;;4150134;28;20463;-42
2022/10/07 08:04:37;;;;;;;1.70;0.68;;;;;;;;;;4146111;28;20543;-42
2022/10/07 08:06:39;;;;;;;2.05;0.77;;;;;;;;;;4157472;28;20053;-41
2022/10/07 08:08:44;;;;;;;1.10;0.50;;;;;;;;;;4153885;28;20100;-42
2022/10/07 08:10:46;;;;;;;1.00;0.50;;;;;;;;;;4152646;28;20163;-42
2022/10/07 08:12:47;;;;;;;2.78;0.40;;;;;;;;;;4154018;28;20053;-42
2022/10/07 08:14:49;;;;;;;3.28;0.77;;;;;;;;;;4156378;28;20554;-41
2022/10/07 08:16:54;;;;;;;1.60;0.52;;;;;;;;;;4152506;28;20108;-42
2022/10/07 08:18:56;;;;;;;2.47;0.55;;;;;;;;;;4147450;28;21855;-43
2022/10/07 08:21:01;;;;;;;3.17;0.70;;;;;;;;;;4151626;28;20123;-42
2022/10/07 08:23:04;;;;;;;1.77;0.50;;;;;;;;;;4152343;28;20057;-42
2022/10/07 08:25:06;;;;;;;1.48;0.57;;;;;;;;;;4155791;28;20053;-43
2022/10/07 08:27:09;;;;;;;0.98;0.50;;;;;;;;;;4156222;28;20451;-43
2022/10/07 08:29:12;;;;;;;3.17;0.55;;;;;;;;;;4156973;28;20053;-42
2022/10/07 08:31:15;;;;;;;3.28;0.45;;;;;;;;;;4151031;28;20391;-42
2022/10/07 08:33:17;;;;;;;1.52;0.70;;;;;;;;;;4157446;28;20496;-42
2022/10/07 08:35:18;;;;;;;1.23;0.52;;;;;;;;;;4155258;28;20054;-42
2022/10/07 08:37:20;;;;;;;1.40;0.80;;;;;;;;;;4155620;28;20057;-43
2022/10/07 08:39:23;;;;;;;1.98;0.60;;;;;;;;;;4151244;28;20378;-41
2022/10/07 08:41:33;;;;;;;2.25;0.63;;;;;;;;;;4155950;28;21800;-42
2022/10/07 08:43:40;;;;;;;;;;;;;;;;;;4154988;28;20100;-40
2022/10/07 08:45:41;;;;;;;2.20;0.75;;;;;;;;;;4153233;28;19929;-41
2022/10/07 08:47:44;;;;;;;1.23;0.60;;;;;;;;;;4150363;28;20058;-43
2022/10/07 08:49:48;;;;;;;3.25;0.43;;;;;;;;;;4156179;28;20088;-42
2022/10/07 08:51:54;;;;;;;0.80;0.40;;;;;;;;;;4153977;28;20058;-40
2022/10/07 08:53:57;;;;;;;1.90;0.60;;;;;;;;;;4151632;28;20477;-42
2022/10/07 08:56:13;;;;;;;1.38;0.60;;;;;;;;;;4150505;28;20058;-39
2022/10/07 08:58:34;;;;;;;2.38;0.60;;;;;;;;;;4145383;28;25819;-41
2022/10/07 09:00:55;;;;;;;1.30;0.60;;;;;;;;;;4146779;28;20088;-40
2022/10/07 09:03:06;;;;;;;2.75;0.55;;;;;;;;;;4148449;28;20061;-42
2022/10/07 09:05:27;;;;;;;0.95;0.40;;;;;;;;;;4144862;28;20057;-41
2022/10/07 09:07:46;;;;;;;1.52;0.60;;;;;;;;;;4150340;28;20057;-43
2022/10/07 09:10:04;;;;;;;;;;;;;;;;;;4151589;28;20539;-41
2022/10/07 09:12:10;;;;;;;1.15;0.47;;;;;;;;;;4161416;28;20426;-42
2022/10/07 09:14:25;;;;;;;1.90;0.80;;;;;;;;;;4146895;28;20053;-42
2022/10/07 09:16:32;;;;;;;1.67;0.47;;;;;;;;;;4149945;28;20401;-43
2022/10/07 09:18:59;;;;;;;2.10;0.57;;;;;;;;;;4155052;28;20053;-41
2022/10/07 09:21:03;;;;;;;1.60;0.57;;;;;;;;;;4157008;28;20060;-42
2022/10/07 09:23:05;;;;;;;2.75;0.60;;;;;;;;;;4155543;28;20050;-43
2022/10/07 09:25:10;;;;;;;1.38;0.57;;;;;;;;;;4161620;28;20414;-42
2022/10/07 09:27:12;;;;;;;2.15;0.50;;;;;;;;;;4156611;28;20056;-42
2022/10/07 09:29:17;;;;;;;1.80;0.57;;;;;;;;;;4157559;28;20110;-42
2022/10/07 09:31:20;;;;;;;2.08;0.65;;;;;;;;;;4160139;28;20096;-42
2022/10/07 09:33:23;;;;;;;1.40;0.60;;;;;;;;;;4155984;28;20127;-42
2022/10/07 09:35:28;;;;;;;1.60;0.32;;;;;;;;;;4156354;28;20099;-41
2022/10/07 09:37:29;;;;;;;1.73;0.50;;;;;;;;;;4156222;28;20049;-42
2022/10/07 09:39:31;;;;;;;1.70;0.60;;;;;;;;;;4155955;28;20057;-41
2022/10/07 09:41:35;;;;;;;0.80;0.40;;;;;;;;;;4151717;28;20483;-42
2022/10/07 09:43:39;;;;;;;1.25;0.50;;;;;;;;;;4137657;28;20506;-42
2022/10/07 09:45:44;;;;;;;1.88;0.47;;;;;;;;;;4140382;28;20061;-42
2022/10/07 09:47:51;;;;;;;1.77;0.50;;;;;;;;;;4150309;28;20103;-43
2022/10/07 09:49:55;;;;;;;2.90;0.70;;;;;;;;;;4151887;28;20234;-42
2022/10/07 09:52:16;;;;;;;3.20;0.40;;;;;;;;;;4158403;28;20057;-42
2022/10/07 09:54:19;;;;;;;2.67;0.50;;;;;;;;;;4159898;28;20504;-42
2022/10/07 09:56:39;;;;;;;1.10;0.40;;;;;;;;;;4144468;28;20053;-39
2022/10/07 09:58:40;;;;;;;0.80;0.40;;;;;;;;;;4146744;28;20649;-42
2022/10/07 10:00:44;;;;;;;0.88;0.43;;;;;;;;;;4146005;28;20526;-39
2022/10/07 10:02:47;;;;;;;1.13;0.45;;;;;;;;;;4149243;28;20109;-42
2022/10/07 10:04:53;;;;;;;1.10;0.50;;;;;;;;;;4148280;28;20590;-42
2022/10/07 10:06:59;;;;;;;1.42;0.40;;;;;;;;;;4153727;28;20053;-42
2022/10/07 10:09:01;;;;;;;1.92;0.40;;;;;;;;;;4147651;28;20095;-42
2022/10/07 10:11:27;;;;;;;1.55;0.30;;;;;;;;;;4152656;28;20421;-43
2022/10/07 10:13:31;;;;;;;2.70;0.45;;;;;;;;;;4155790;28;20775;-42
2022/10/07 10:15:35;;;;;;;0.70;0.30;;;;;;;;;;4154274;28;20045;-41
2022/10/07 10:17:36;;;;;;;1.08;0.40;;;;;;;;;;4148087;28;20577;-41
2022/10/07 10:19:37;;;;;;;1.42;0.47;;;;;;;;;;4151186;28;20085;-41
2022/10/07 10:21:40;;;;;;;1.17;0.63;;;;;;;;;;4148301;28;20616;-42
2022/10/07 10:23:46;;;;;;;1.40;0.40;;;;;;;;;;4155219;28;20053;-42
2022/10/07 10:26:26;;;;;;;0.57;0.40;;;;;;;;;;4150685;28;20045;-42
2022/10/07 10:28:33;;;;;;;;;;;;;;;;;;4146602;28;20065;-40
2022/10/07 10:30:42;;;;;;;0.60;0.32;;;;;;;;;;4146872;28;19929;-42
2022/10/07 10:32:59;;;;;;;2.75;0.60;;;;;;;;;;4154445;28;20053;-42
2022/10/07 10:35:41;;;;;;;0.70;0.30;;;;;;;;;;4153320;28;20076;-42
2022/10/07 10:37:56;;;;;;;0.77;0.30;;;;;;;;;;4138765;28;20054;-42
2022/10/07 10:40:34;;;;;;;1.08;0.50;;;;;;;;;;4152396;28;20570;-43
2022/10/07 10:43:01;;;;;;;2.88;0.57;;;;;;;;;;4147483;28;20527;-43
2022/10/07 10:45:17;;;;;;;1.23;0.47;;;;;;;;;;4146566;28;20054;-41
2022/10/07 10:47:21;;;;;;;1.02;0.43;;;;;;;;;;4147043;28;20057;-41
2022/10/07 10:49:32;;;;;;;1.88;0.60;;;;;;;;;;4154076;28;20445;-42
2022/10/07 10:52:01;;;;;;;1.05;0.40;;;;;;;;;;4146098;28;20050;-43
2022/10/07 10:54:11;;;;;;;1.77;0.73;;;;;;;;;;4131482;28;20054;-41
2022/10/07 10:56:44;;;;;;;1.30;0.82;;;;;;;;;;4146093;28;20520;-42
2022/10/07 10:59:07;;;;;;;1.02;0.40;;;;;;;;;;4148060;28;20516;-42
2022/10/07 11:01:15;;;;;;;1.00;0.50;;;;;;;;;;4142951;28;20050;-39
2022/10/07 11:03:42;;;;;;;3.15;0.75;;;;;;;;;;4140157;28;20080;-41
2022/10/07 11:05:45;;;;;;;1.48;0.63;;;;;;;;;;4144829;28;20564;-43
2022/10/07 11:07:52;;;;;;;1.75;0.70;;;;;;;;;;4145603;28;20057;-42
2022/10/07 11:09:58;;;;;;;0.85;0.50;;;;;;;;;;4146150;28;20054;-42
2022/10/07 11:12:03;;;;;;;2.38;0.50;;;;;;;;;;4152784;28;21648;-43
2022/10/07 11:14:16;;;;;;;1.27;0.52;;;;;;;;;;4151764;28;20100;-43
2022/10/07 11:16:29;;;;;;;0.75;0.50;;;;;;;;;;4153306;28;20062;-42
2022/10/07 11:18:40;;;;;;;1.90;0.60;;;;;;;;;;4139669;28;20061;-41
2022/10/07 11:20:47;;;;;;;3.53;0.50;;;;;;;;;;4152121;28;20099;-43
2022/10/07 11:22:55;;;;;;;0.75;0.50;;;;;;;;;;4154028;28;20080;-42
2022/10/07 11:25:03;;;;;;;2.35;0.43;;;;;;;;;;4150724;28;20053;-42
2022/10/07 11:27:24;;;;;;;2.92;0.70;;;;;;;;;;4166706;28;20145;-42
2022/10/07 11:29:25;;;;;;;1.95;0.60;;;;;;;;;;4149773;28;20053;-42
2022/10/07 11:31:31;;;;;;;1.13;0.60;;;;;;;;;;4151741;28;20092;-42
2022/10/07 11:34:02;;;;;;;1.73;0.45;;;;;;;;;;4151792;28;20054;-43
2022/10/07 11:36:10;;;;;;;0.93;0.57;;;;;;;;;;4152016;28;20171;-43
2022/10/07 11:38:11;;;;;;;2.92;0.40;;;;;;;;;;4148269;28;20053;-43
2022/10/07 11:40:13;;;;;;;1.73;0.40;;;;;;;;;;4152113;28;20054;-42
2022/10/07 11:42:17;;;;;;;1.23;0.55;;;;;;;;;;4153897;28;20049;-43
2022/10/07 11:44:25;;;;;;;1.65;0.50;;;;;;;;;;4150115;28;20516;-41
2022/10/07 11:46:31;;;;;;;0.73;0.40;;;;;;;;;;4153618;28;20179;-41
2022/10/07 11:48:39;;;;;;;1.63;0.50;;;;;;;;;;4144664;28;20054;-42
2022/10/07 11:51:02;;;;;;;3.53;0.70;;;;;;;;;;4151789;28;20056;-42
2022/10/07 11:53:24;;;;;;;0.70;0.47;;;;;;;;;;4157889;28;20457;-42
2022/10/07 11:55:28;;;;;;;1.50;0.60;;;;;;;;;;4158604;28;20448;-42
2022/10/07 11:57:32;;;;;;;1.38;0.50;;;;;;;;;;4159352;28;20428;-43
2022/10/07 11:59:42;;;;;;;1.75;0.40;;;;;;;;;;4156351;28;20049;-43
2022/10/07 12:01:51;;;;;;;1.40;0.52;;;;;;;;;;4152457;28;20068;-41
2022/10/07 12:04:11;;;;;;;0.85;0.60;;;;;;;;;;4152944;28;20116;-42
2022/10/07 12:06:13;;;;;;;1.23;0.45;;;;;;;;;;4151394;28;20061;-39
2022/10/07 12:08:31;;;;;;;0.88;0.40;;;;;;;;;;4152900;28;20073;-42
2022/10/07 12:10:33;;;;;;;1.40;0.40;;;;;;;;;;4152079;28;20115;-41
2022/10/07 12:12:45;;;;;;;1.10;0.50;;;;;;;;;;4148215;28;20402;-39
2022/10/07 12:14:58;;;;;;;0.93;0.30;;;;;;;;;;4155465;28;20051;-43
2022/10/07 12:17:15;;;;;;;0.80;0.30;;;;;;;;;;4156044;28;20061;-40
2022/10/07 12:19:18;;;;;;;0.73;0.38;;;;;;;;;;4150058;28;20433;-42
2022/10/07 12:21:19;;;;;;;0.60;0.30;;;;;;;;;;4156602;28;20131;-43
2022/10/07 12:23:22;;;;;;;0.65;0.35;;;;;;;;;;4146049;28;20304;-43
2022/10/07 12:25:40;;;;;;;0.93;0.45;;;;;;;;;;4148412;28;20050;-42
2022/10/07 12:27:45;;;;;;;1.25;0.45;;;;;;;;;;4156781;28;20069;-44
2022/10/07 12:30:02;;;;;;;2.45;0.47;;;;;;;;;;4150800;28;20053;-43
2022/10/07 12:32:39;;;;;;;1.00;0.50;;;;;;;;;;4150900;28;20551;-42
2022/10/07 12:34:42;;;;;;;1.95;0.52;;;;;;;;;;4151630;28;20053;-45
2022/10/07 12:36:43;;;;;;;0.40;0.20;;;;;;;;;;4154372;28;20523;-41
2022/10/07 12:39:08;;;;;;;1.27;0.63;;;;;;;;;;4137795;28;20057;-41
2022/10/07 12:41:09;;;;;;;1.58;0.40;;;;;;;;;;4149767;28;20053;-43
2022/10/07 12:43:24;;;;;;;1.25;0.40;;;;;;;;;;4149739;28;20503;-43